METAR Data
IDs: Format: Raw Decoded Include TAF

Data at: 0603 UTC 24 Sep 2020

KIAH 240553Z 31005KT 10SM SCT014 OVC022 22/19 A2988 RMK AO2 SLP116 60000 T02170194 10250 20217 402720217 58002

KIAH 240520Z 2406/2512 34008KT P6SM SCT010 BKN015 OVC025
  FM241000 35006KT 6SM BR SCT008 BKN010 OVC025
  FM241500 35008KT P6SM BKN015 BKN030
  FM241800 34008KT P6SM SCT025 SCT035
  FM250100 01004KT P6SM BKN030